Flight Track Log - Related Links

Times and Time Zones

All times are in EDT time to prevent confusion due to time zone crossing. See the ACA576 flight status page for this flight to view local times or setup timezone preferences in your user account.

Time Position Orientation Groundspeed Altitude Reporting Facility
EDT Latitude Longitude Course Direction KTS MPH feet Rate Location/Type
Thu 02:40:15 PM 36.0747 -115.1022 90° East 164 189 3,600  Level Los Angeles Center
Thu 02:40:51 PM 36.0742 -115.0703 91° East 164 189 4,800 1,922 Climbing Los Angeles Center
Thu 02:41:58 PM 36.0758 -114.9981 88° East 193 222 6,900 1,517 Climbing Los Angeles Center
Thu 02:42:18 PM 36.0764 -114.9814 88° East 183 211 7,000 1,171 Climbing Los Angeles Center
Thu 02:43:00 PM 36.1833 -114.5474 90° East  Level FlightAware Approximate
Thu 02:43:20 PM 36.0833 -114.8908 85° East 255 293 8,500  Level Los Angeles Center
Thu 02:44:00 PM 36.1833 -114.3900 90° East  Level FlightAware Approximate
Thu 02:44:22 PM 36.0994 -114.8033 77° East 263 303 11,000  Level Los Angeles Center
Thu 02:45:00 PM 36.1833 -114.2326 90° East  Level FlightAware Approximate
Thu 02:45:24 PM 36.1217 -114.6722 78° East 323 372 13,200  Level Los Angeles Center
Thu 02:46:26 PM 36.1419 -114.5536 78° East 348 400 15,600 2,177 Climbing Los Angeles Center
Thu 02:47:28 PM 36.1633 -114.4281 78° East 366 421 17,700 1,742 Climbing Los Angeles Center
Thu 02:48:30 PM 36.1842 -114.2975 79° East 382 440 19,200 1,694 Climbing Los Angeles Center
Thu 02:49:32 PM 36.2056 -114.1603 79° East 399 459 21,200 1,839 Climbing Los Angeles Center
Thu 02:50:34 PM 36.2200 -114.0186 83° East 411 473 23,000 1,776 Climbing Los Angeles Center
Thu 02:51:37 PM 36.2406 -113.8428 82° East 430 495 24,900 1,632 Climbing Los Angeles Center
Thu 02:52:39 PM 36.2583 -113.6933 82° East 437 503 26,400 1,403 Climbing Los Angeles Center
Thu 02:53:41 PM 36.2758 -113.5419 82° East 444 511 27,800 1,065 Climbing Los Angeles Center
Thu 02:54:43 PM 36.2903 -113.4183 82° East 450 518 28,600 1,008 Climbing Los Angeles Center
Thu 02:55:46 PM 36.3197 -113.2075 80° East 468 539 29,900 1,065 Climbing Los Angeles Center
Thu 02:56:47 PM 36.3592 -113.0892 67° East 468 539 30,800 1,024 Climbing Los Angeles Center
Thu 02:57:49 PM 36.4258 -112.9150 65° Northeast 467 537 32,000 1,113 Climbing Los Angeles Center
Thu 02:58:51 PM 36.4811 -112.7675 65° Northeast 472 543 33,100 960 Climbing Los Angeles Center
Thu 02:59:54 PM 36.5336 -112.6222 66° East 467 537 34,000 1,008 Climbing Los Angeles Center
Thu 03:00:56 PM 36.5975 -112.4492 65° Northeast 462 532 35,200 1,016 Climbing Los Angeles Center
Thu 03:01:58 PM 36.6500 -112.3061 65° Northeast 459 528 36,100 574 Climbing Los Angeles Center
Thu 03:03:12 PM 36.7047 -112.1283 69° East 462 532 36,500 353 Climbing Los Angeles Center
Thu 03:04:14 PM 36.7522 -111.9778 68° East 469 540 36,900 240 Climbing Los Angeles Center
Thu 03:05:17 PM 36.7992 -111.8272 69° East 470 541 37,000 48 Climbing Los Angeles Center
Thu 03:06:19 PM 36.8553 -111.6442 69° East 473 544 37,000  Level Los Angeles Center
Thu 03:07:21 PM 36.9022 -111.4914 69° East 474 545 37,000  Level Los Angeles Center
Thu 03:08:23 PM 36.9478 -111.3378 70° East 474 545 37,000  Level Los Angeles Center
Thu 03:09:25 PM 36.9953 -111.1842 69° East 475 547 37,000  Level Los Angeles Center
Thu 03:10:38 PM 37.0492 -111.0014 70° East 472 543 37,000  Level Denver Center
Thu 03:11:40 PM 37.0961 -110.8481 69° East 473 544 37,000  Level Denver Center
Thu 03:12:41 PM 37.1503 -110.6653 70° East 469 540 37,000  Level Denver Center
Thu 03:13:43 PM 37.1953 -110.5119 70° East 470 541 37,000  Level Denver Center
Thu 03:14:45 PM 37.2400 -110.3603 70° East 465 535 37,000  Level Denver Center
Thu 03:15:47 PM 37.2842 -110.2100 70° East 462 532 37,000  Level Denver Center
Thu 03:16:49 PM 37.3331 -110.0378 70° East 461 531 37,000  Level Denver Center
Thu 03:17:50 PM 37.3750 -109.8933 70° East 460 529 37,000  Level Denver Center
Thu 03:18:52 PM 37.4169 -109.7492 70° East 458 527 37,000  Level Denver Center
Thu 03:19:54 PM 37.4644 -109.5828 70° East 452 520 37,000  Level Denver Center
Thu 03:20:56 PM 37.5053 -109.4400 70° East 452 520 37,000  Level Denver Center
Thu 03:21:57 PM 37.5392 -109.3197 70° East 455 524 37,000  Level Denver Center
Thu 03:22:59 PM 37.5931 -109.1258 71° East 458 527 37,000 48 Level Denver Center
Thu 03:24:01 PM 37.6406 -108.9553 71° East 460 529 37,100  Climbing Denver Center
Thu 03:25:02 PM 37.6808 -108.8078 71° East 464 534 37,000 -49 Descending Denver Center
Thu 03:26:04 PM 37.7211 -108.6603 71° East 464 534 37,000  Level Denver Center
Thu 03:27:06 PM 37.7681 -108.4933 70° East 455 524 37,000  Level Denver Center
Thu 03:28:20 PM 37.8069 -108.3503 71° East 451 519 37,000  Level Denver Center
Thu 03:29:22 PM 37.8589 -108.1569 71° East 452 520 37,000  Level Denver Center
Thu 03:30:24 PM 37.8967 -108.0144 71° East 448 516 37,000 -49 Level Denver Center
Thu 03:31:25 PM 37.9425 -107.8447 71° East 453 521 36,900  Descending Denver Center
Thu 03:32:27 PM 37.9814 -107.7003 71° East 453 521 37,000 48 Climbing Denver Center
Thu 03:33:29 PM 38.0269 -107.5264 72° East 463 533 37,000 48 Level Denver Center
Thu 03:34:31 PM 38.0664 -107.3767 71° East 467 537 37,100  Climbing Denver Center
Thu 03:35:32 PM 38.1086 -107.2139 72° East 467 537 37,000 -49 Descending Denver Center
Thu 03:36:34 PM 38.1508 -107.0508 72° East 462 532 37,000 -48 Level Denver Center
Thu 03:37:36 PM 38.1903 -106.8956 72° East 462 532 36,900  Descending Denver Center
Thu 03:38:38 PM 38.2292 -106.7442 72° East 459 528 37,000 48 Climbing Denver Center
Thu 03:39:40 PM 38.2733 -106.5719 72° East 460 529 37,000  Level Denver Center
Thu 03:40:41 PM 38.3083 -106.4325 72° East 461 531 37,000  Level Denver Center
Thu 03:41:43 PM 38.3461 -106.2767 73° East 462 532 37,000 48 Level Denver Center
Thu 03:42:45 PM 38.3911 -106.1006 72° East 463 533 37,100  Climbing Denver Center
Thu 03:43:47 PM 38.4339 -105.9253 73° East 462 532 37,000 -49 Descending Denver Center
Thu 03:44:48 PM 38.4714 -105.7750 72° East 463 533 37,000  Level Denver Center
Thu 03:45:50 PM 38.5081 -105.6261 72° East 461 531 37,000  Level Denver Center
Thu 03:46:52 PM 38.5500 -105.4511 73° East 461 531 37,000  Level Denver Center
Thu 03:47:54 PM 38.5869 -105.2994 73° East 463 533 37,000  Level Denver Center
Thu 03:48:56 PM 38.6294 -105.1225 73° East 465 535 37,000  Level Denver Center
Thu 03:49:58 PM 38.6664 -104.9689 73° East 468 539 37,000  Level Denver Center
Thu 03:51:00 PM 38.7069 -104.7917 74° East 464 534 37,000  Level Denver Center
Thu 03:52:01 PM 38.7433 -104.6378 73° East 469 540 37,000  Level Denver Center
Thu 03:53:03 PM 38.7806 -104.4817 73° East 474 545 37,000  Level Denver Center
Thu 03:54:05 PM 38.8214 -104.2989 74° East 475 547 37,000  Level Denver Center
Thu 03:55:07 PM 38.8578 -104.1414 73° East 478 550 37,000 48 Level Denver Center
Thu 03:56:09 PM 38.8989 -103.9581 74° East 478 550 37,100 48 Climbing Denver Center
Thu 03:57:11 PM 38.9350 -103.8028 73° East 474 545 37,100 -48 Level Denver Center
Thu 03:58:13 PM 38.9750 -103.6231 74° East 468 539 37,000 -48 Descending Denver Center
Thu 03:59:16 PM 39.0081 -103.4722 74° East 459 528 37,000  Level Denver Center
Thu 04:00:18 PM 39.0469 -103.2972 74° East 456 525 37,000  Level Denver Center
Thu 04:01:20 PM 39.0814 -103.1447 74° East 462 532 37,000  Level Denver Center
Thu 04:02:22 PM 39.1203 -102.9622 75° East 472 543 37,000  Level Denver Center
Thu 04:03:24 PM 39.1542 -102.8061 74° East 472 543 37,000  Level Denver Center
Thu 04:04:26 PM 39.1917 -102.6306 75° East 467 537 37,000  Level Denver Center
Thu 04:05:28 PM 39.2236 -102.4789 75° East 459 528 37,000  Level Denver Center
Thu 04:06:30 PM 39.2619 -102.2981 75° East 467 537 37,000  Level Denver Center
Thu 04:07:32 PM 39.2956 -102.1419 74° East 470 541 37,000 48 Level Denver Center
Thu 04:08:34 PM 39.3306 -101.9686 75° East 474 545 37,100  Climbing Denver Center
Thu 04:09:36 PM 39.3633 -101.8119 75° East 474 545 37,000 -48 Descending Denver Center
Thu 04:10:38 PM 39.4081 -101.6344 72° East 471 542 37,000  Level Denver Center
Thu 04:11:40 PM 39.4619 -101.4894 64° Northeast 468 539 37,000  Level Denver Center
Thu 04:12:42 PM 39.5244 -101.3214 64° Northeast 466 536 37,000  Level Denver Center
Thu 04:13:44 PM 39.5778 -101.1756 65° Northeast 468 539 37,000  Level Denver Center
Thu 04:14:46 PM 39.6403 -101.0028 65° Northeast 475 547 37,000  Level Denver Center
Thu 04:15:48 PM 39.6942 -100.8569 64° Northeast 471 542 37,000  Level Denver Center
Thu 04:16:50 PM 39.7569 -100.6808 65° Northeast 481 554 37,000  Level Denver Center
Thu 04:17:52 PM 39.8106 -100.5314 65° Northeast 480 552 37,000  Level Denver Center
Thu 04:18:54 PM 39.8742 -100.3564 65° Northeast 481 554 37,000  Level Denver Center
Thu 04:19:56 PM 39.9239 -100.2156 65° Northeast 480 552 37,000  Level Denver Center
Thu 04:20:57 PM 39.9789 -100.0581 65° Northeast 479 551 37,000  Level Denver Center
Thu 04:21:59 PM 40.0556 -99.8744 61° Northeast 481 554 37,000  Level Denver Center
Thu 04:23:01 PM 40.1236 -99.7267 59° Northeast 477 549 37,000  Level Denver Center
Thu 04:24:03 PM 40.1914 -99.5772 59° Northeast 477 549 37,000  Level Denver Center
Thu 04:25:05 PM 40.2606 -99.4264 59° Northeast 482 555 37,000  Level Denver Center
Thu 04:26:07 PM 40.3283 -99.2758 59° Northeast 483 556 37,000  Level Denver Center
Thu 04:27:09 PM 40.3961 -99.1247 59° Northeast 482 555 37,000  Level Denver Center
Thu 04:27:44 PM 40.4372 -99.0344 59° Northeast 484 557 37,000  Level Minneapolis Center
Thu 04:28:46 PM 40.5044 -98.8822 60° Northeast 484 557 37,000  Level Minneapolis Center
Thu 04:29:48 PM 40.5839 -98.6994 60° Northeast 482 555 37,000  Level Minneapolis Center
Thu 04:30:50 PM 40.6517 -98.5481 59° Northeast 483 556 37,000  Level Minneapolis Center
Thu 04:31:52 PM 40.7181 -98.3947 60° Northeast 484 557 37,000  Level Minneapolis Center
Thu 04:32:54 PM 40.7853 -98.2392 60° Northeast 487 560 37,000 48 Level Minneapolis Center
Thu 04:33:56 PM 40.8533 -98.0808 60° Northeast 493 567 37,100  Climbing Minneapolis Center
Thu 04:34:58 PM 40.9364 -97.8894 60° Northeast 501 577 37,000 -48 Descending Minneapolis Center
Thu 04:36:00 PM 41.0031 -97.7339 60° Northeast 494 568 37,000  Level Minneapolis Center
Thu 04:37:02 PM 41.0686 -97.5792 61° Northeast 486 559 37,000  Level Minneapolis Center
Thu 04:38:04 PM 41.1339 -97.4250 61° Northeast 483 556 37,000  Level Minneapolis Center
Thu 04:39:06 PM 41.2008 -97.2650 61° Northeast 483 556 37,000  Level Minneapolis Center
Thu 04:40:08 PM 41.2672 -97.1089 60° Northeast 485 558 37,000  Level Minneapolis Center
Thu 04:42:00 PM 41.3810 -96.8342 61° Northeast  Level FlightAware Approximate
Thu 04:44:17 PM 41.5417 -96.4469 62° Northeast 482 555 37,000  Level Minneapolis Center
Thu 04:45:19 PM 41.6025 -96.2981 61° Northeast 481 554 37,000  Level Minneapolis Center
Thu 04:46:21 PM 41.6700 -96.1306 69° East 478 550 37,000  Level Minneapolis Center
Thu 04:47:00 PM 41.6782 -96.0324 69° East  Level Estimated
Thu 04:47:23 PM 41.7344 -95.9706 62° Northeast 482 555 37,000  Level Minneapolis Center
Thu 04:48:25 PM 41.7981 -95.8100 62° Northeast 484 557 37,000  Level Minneapolis Center
Thu 04:49:00 PM 41.8027 -95.7957 62° Northeast  Level FlightAware Approximate
Thu 04:49:27 PM 41.8636 -95.6506 61° Northeast 486 559 37,000  Level Minneapolis Center
Thu 04:50:29 PM 41.9264 -95.4861 63° Northeast 490 564 37,000  Level Minneapolis Center
Thu 04:51:31 PM 42.0047 -95.2908 62° Northeast 495 570 37,000 48 Level Minneapolis Center
Thu 04:52:33 PM 42.0683 -95.1261 62° Northeast 496 571 37,100  Climbing Minneapolis Center
Thu 04:53:35 PM 42.1317 -94.9636 62° Northeast 491 565 37,000 -44 Descending Minneapolis Center
Thu 04:54:00 PM 41.9864 -94.9209 69° East  Level Estimated
Thu 04:54:49 PM 42.1947 -94.8008 62° Northeast 489 563 37,000  Level Minneapolis Center
Thu 04:55:52 PM 42.2706 -94.6061 62° Northeast 488 562 37,000  Level Minneapolis Center
Thu 04:56:54 PM 42.3314 -94.4411 63° Northeast 489 563 37,000  Level Minneapolis Center
Thu 04:57:55 PM 42.3956 -94.2767 62° Northeast 493 567 37,000  Level Minneapolis Center
Thu 04:58:58 PM 42.4706 -94.0775 63° Northeast 493 567 37,000  Level Minneapolis Center
Thu 05:00:00 PM 42.5317 -93.9144 63° Northeast 490 564 37,000  Level Minneapolis Center
Thu 05:01:02 PM 42.5969 -93.7558 61° Northeast 487 560 37,000  Level Minneapolis Center
Thu 05:02:04 PM 42.6594 -93.5981 62° Northeast 481 554 37,000  Level Minneapolis Center
Thu 05:03:06 PM 42.7225 -93.4411 61° Northeast 478 550 37,000  Level Minneapolis Center
Thu 05:04:08 PM 42.7969 -93.2503 62° Northeast 479 551 37,000  Level Minneapolis Center
Thu 05:05:22 PM 42.8589 -93.0908 62° Northeast 479 551 37,000  Level Minneapolis Center
Thu 05:06:25 PM 42.9342 -92.8975 62° Northeast 482 555 37,000  Level Minneapolis Center
Thu 05:07:27 PM 42.9961 -92.7356 62° Northeast 483 556 37,000  Level Minneapolis Center
Thu 05:08:29 PM 43.0603 -92.5742 61° Northeast 483 556 37,000  Level Minneapolis Center
Thu 05:09:31 PM 43.1331 -92.3806 63° Northeast 482 555 37,000  Level Minneapolis Center
Thu 05:10:33 PM 43.1947 -92.2194 62° Northeast 479 551 37,000  Level Minneapolis Center
Thu 05:11:35 PM 43.2564 -92.0567 62° Northeast 481 554 37,000  Level Minneapolis Center
Thu 05:12:50 PM 43.3306 -91.8586 63° Northeast 484 557 37,000  Level Minneapolis Center
Thu 05:13:52 PM 43.3914 -91.6958 63° Northeast 483 556 37,000  Level Minneapolis Center
Thu 05:14:54 PM 43.4511 -91.5347 63° Northeast 478 550 37,000  Level Minneapolis Center
Thu 05:16:08 PM 43.5347 -91.3061 63° Northeast 479 551 37,000  Level Minneapolis Center
Thu 05:16:33 PM 43.5586 -91.2428 62° Northeast 476 548 37,000  Level Minneapolis Center
Thu 05:17:35 PM 43.6186 -91.0797 63° Northeast 477 549 37,000  Level Minneapolis Center
Thu 05:18:37 PM 43.6769 -90.9164 64° Northeast 477 549 37,000  Level Minneapolis Center
Thu 05:19:39 PM 43.7350 -90.7544 64° Northeast 474 545 37,000  Level Minneapolis Center
Thu 05:20:41 PM 43.8031 -90.5647 64° Northeast 475 547 37,000  Level Minneapolis Center
Thu 05:21:43 PM 43.8606 -90.4025 64° Northeast 471 542 37,000  Level Minneapolis Center
Thu 05:22:45 PM 43.9192 -90.2386 64° Northeast 473 544 37,000  Level Minneapolis Center
Thu 05:23:47 PM 43.9656 -90.1017 65° Northeast 473 544 37,000  Level Minneapolis Center
Thu 05:24:49 PM 44.0308 -89.9083 65° Northeast 474 545 37,000  Level Minneapolis Center
Thu 05:25:51 PM 44.0906 -89.7122 67° East 472 543 37,000  Level Minneapolis Center
Thu 05:26:53 PM 44.1433 -89.5436 66° East 474 545 37,000  Level Minneapolis Center
Thu 05:27:55 PM 44.1958 -89.3758 66° East 471 542 37,000  Level Minneapolis Center
Thu 05:29:09 PM 44.2481 -89.2053 67° East 475 547 37,000  Level Minneapolis Center
Thu 05:30:11 PM 44.3100 -89.0056 67° East 479 551 37,000  Level Minneapolis Center
Thu 05:31:13 PM 44.3711 -88.8039 67° East 480 552 37,000  Level Minneapolis Center
Thu 05:32:15 PM 44.4231 -88.6336 67° East 477 549 37,000  Level Minneapolis Center
Thu 05:33:17 PM 44.4747 -88.4622 67° East 477 549 37,000  Level Minneapolis Center
Thu 05:34:19 PM 44.5264 -88.2903 67° East 479 551 37,000  Level Minneapolis Center
Thu 05:35:21 PM 44.5747 -88.1156 69° East 480 552 37,000  Level Minneapolis Center
Thu 05:36:23 PM 44.6183 -87.9414 71° East 474 545 37,000  Level Minneapolis Center
Thu 05:37:25 PM 44.6608 -87.7628 71° East 471 542 37,000 -48 Level Minneapolis Center
Thu 05:38:27 PM 44.7047 -87.5889 70° East 472 543 36,900 -49 Descending Minneapolis Center
Thu 05:39:28 PM 44.7386 -87.4508 71° East 469 540 36,900 49 Level Minneapolis Center
Thu 05:40:30 PM 44.7975 -87.2061 71° East 472 543 37,000 48 Climbing Minneapolis Center
Thu 05:41:32 PM 44.8397 -87.0331 71° East 470 541 37,000 -48 Level Minneapolis Center
Thu 05:42:34 PM 44.8814 -86.8592 71° East 470 541 36,900  Descending Minneapolis Center
Thu 05:43:36 PM 44.9253 -86.6719 72° East 471 542 37,000 48 Climbing Minneapolis Center
Thu 05:44:38 PM 44.9669 -86.4978 71° East 470 541 37,000  Level Minneapolis Center
Thu 05:45:52 PM 45.0078 -86.3228 72° East 469 540 37,000  Level Minneapolis Center
Thu 05:46:54 PM 45.0567 -86.1125 72° East 470 541 37,000  Level Minneapolis Center
Thu 05:47:55 PM 45.0886 -85.9717 72° East 471 542 37,000  Level Minneapolis Center
Thu 05:48:58 PM 45.1367 -85.7622 72° East 468 539 37,000 -48 Level Minneapolis Center
Thu 05:50:00 PM 45.1836 -85.5564 72° East 462 532 36,900 -49 Descending Minneapolis Center
Thu 05:51:01 PM 45.2156 -85.4181 72° East 461 531 36,900  Level Minneapolis Center
Thu 05:52:04 PM 45.2614 -85.2103 73° East 461 531 36,900  Level Minneapolis Center
Thu 05:53:06 PM 45.2997 -85.0367 73° East 461 531 36,900 48 Level Minneapolis Center
Thu 05:54:08 PM 45.3375 -84.8617 73° East 463 533 37,000 49 Climbing Minneapolis Center
Thu 05:55:09 PM 45.3761 -84.6881 72° East 462 532 37,000  Level Minneapolis Center
Thu 05:56:11 PM 45.4214 -84.4778 73° East 462 532 37,000 -48 Level Minneapolis Center
Thu 05:57:13 PM 45.4592 -84.3008 73° East 466 536 36,900 -48 Descending Minneapolis Center
Thu 05:58:15 PM 45.4958 -84.1233 74° East 467 537 36,900 71 Level Minneapolis Center
Thu 05:58:38 PM 45.5000 -84.0333 86° East 470 541 37,000 72 Climbing Toronto Center
Thu 05:59:38 PM 45.5333 -83.8667 74° East 470 541 37,000  Level Toronto Center
Thu 06:00:19 PM 45.5700 -83.7686 62° Northeast 468 539 37,000 -58 Level Minneapolis Center
Thu 06:01:21 PM 45.6069 -83.5908 73° East 467 537 36,900  Descending Minneapolis Center
Thu 06:01:38 PM 45.6000 -83.5167 98° East 470 541 37,000 78 Climbing Toronto Center
Thu 06:02:38 PM 45.6333 -83.3333 75° East 470 541 37,000  Level Toronto Center
Thu 06:03:38 PM 45.6833 -83.1333 70° East 470 541 37,000  Level Toronto Center
Thu 06:04:37 PM 45.7167 -82.9500 75° East 470 541 37,000  Level Toronto Center
Thu 06:05:37 PM 45.7500 -82.7833 74° East 470 541 37,000  Level Toronto Center
Thu 06:06:38 PM 45.8000 -82.6000 69° East 470 541 37,000  Level Toronto Center
Thu 06:07:38 PM 45.8167 -82.4333 82° East 470 541 37,000  Level Toronto Center
Thu 06:08:38 PM 45.8500 -82.2333 76° East 470 541 37,000  Level Toronto Center
Thu 06:09:38 PM 45.8833 -82.0500 75° East 470 541 37,000  Level Toronto Center
Thu 06:10:38 PM 45.9333 -81.8833 67° East 470 541 37,000  Level Toronto Center
Thu 06:11:38 PM 45.9667 -81.7000 75° East 470 541 37,000  Level Toronto Center
Thu 06:12:38 PM 45.9833 -81.5000 83° East 470 541 37,000  Level Toronto Center
Thu 06:13:38 PM 46.0167 -81.3333 74° East 480 552 37,000  Level Toronto Center
Thu 06:14:38 PM 46.0500 -81.1500 75° East 480 552 37,000  Level Toronto Center
Thu 06:15:38 PM 46.0500 -80.9500 90° East 470 541 37,000  Level Toronto Center
Thu 06:16:38 PM 46.0667 -80.7667 82° East 470 541 37,000  Level Toronto Center
Thu 06:17:38 PM 46.0667 -80.5667 90° East 470 541 37,000  Level Toronto Center
Thu 06:18:38 PM 46.0833 -80.4000 82° East 470 541 37,000  Level Toronto Center
Thu 06:19:38 PM 46.0833 -80.2167 90° East 470 541 37,000  Level Toronto Center
Thu 06:20:38 PM 46.0833 -80.0167 90° East 460 529 37,000  Level Toronto Center
Thu 06:21:38 PM 46.1000 -79.8167 83° East 460 529 37,000  Level Toronto Center
Thu 06:22:38 PM 46.1000 -79.6500 90° East 460 529 37,000  Level Toronto Center
Thu 06:23:38 PM 46.1000 -79.4667 90° East 460 529 37,000  Level Toronto Center
Thu 06:24:38 PM 46.1167 -79.2667 83° East 460 529 37,000  Level Toronto Center
Thu 06:25:38 PM 46.1167 -79.1000 90° East 460 529 37,000  Level Toronto Center
Thu 06:26:38 PM 46.1167 -78.9167 90° East 460 529 37,000  Level Toronto Center
Thu 06:27:38 PM 46.1333 -78.7167 83° East 460 529 37,000  Level Toronto Center
Thu 06:28:38 PM 46.1333 -78.5500 90° East 460 529 37,000  Level Toronto Center
Thu 06:29:38 PM 46.1167 -78.3500 97° East 460 529 37,000  Level Toronto Center
Thu 06:30:38 PM 46.1167 -78.1667 90° East 460 529 37,000  Level Toronto Center
Thu 06:31:38 PM 46.1333 -77.9667 83° East 460 529 37,000  Level Toronto Center
Thu 06:32:38 PM 46.1333 -77.8000 90° East 460 529 37,000  Level Toronto Center
Thu 06:33:38 PM 46.1333 -77.6333 90° East 440 506 37,000  Level Toronto Center
Thu 06:34:38 PM 46.1500 -77.4667 82° East 420 483 37,000  Level Toronto Center
Thu 06:35:38 PM 46.1333 -77.3000 98° East 420 483 37,000  Level Toronto Center
Thu 06:36:38 PM 46.1333 -77.1333 90° East 410 472 37,000  Level Toronto Center
Thu 06:37:38 PM 46.1333 -76.9833 90° East 410 472 37,000  Level Toronto Center
Thu 06:38:38 PM 46.1500 -76.8000 82° East 410 472 37,000  Level Toronto Center
Thu 06:39:38 PM 46.1500 -76.6500 90° East 410 472 37,000 -450 Level Toronto Center
Thu 06:40:38 PM 46.1333 -76.4833 98° East 410 472 36,100 -950 Descending Toronto Center
Thu 06:41:38 PM 46.1333 -76.3167 90° East 400 460 35,100 -958 Descending Toronto Center
Thu 06:42:37 PM 46.1500 -76.1667 81° East 400 460 34,200 -1,109 Descending Toronto Center
Thu 06:43:37 PM 46.1333 -76.0000 98° East 390 449 32,900 -1,450 Descending Toronto Center
Thu 06:44:37 PM 46.1333 -75.8500 90° East 370 426 31,300 -1,587 Descending Toronto Center
Thu 06:45:38 PM 46.1333 -75.7167 90° East 370 426 29,700 -1,488 Descending Toronto Center
Thu 06:46:38 PM 46.1500 -75.5667 81° East 350 403 28,300 -1,488 Descending Toronto Center
Thu 06:47:43 PM 46.1333 -75.4667 103° East 340 391 26,600 -1,440 Descending Montreal Center
Thu 06:48:43 PM 46.1167 -75.3167 99° East 330 380 25,300 -1,250 Descending Montreal Center
Thu 06:49:43 PM 46.1167 -75.2000 90° East 320 368 24,100 -1,250 Descending Montreal Center
Thu 06:50:43 PM 46.1000 -75.0667 100° East 300 345 22,800 -1,400 Descending Montreal Center
Thu 06:51:43 PM 46.0833 -74.9500 102° East 290 334 21,300 -1,350 Descending Montreal Center
Thu 06:52:43 PM 46.1333 -74.9333 13° North 270 311 20,100 -700 Descending Montreal Center
Thu 06:53:43 PM 46.1500 -75.0167 286° West 260 299 19,900 -800 Descending Montreal Center
Thu 06:54:43 PM 46.0667 -75.0000 172° South 270 311 18,500 -1,050 Descending Montreal Center
Thu 06:55:43 PM 46.0500 -74.9000 103° East 270 311 17,800 -850 Descending Montreal Center
Thu 06:56:43 PM 46.0167 -74.7833 112° Southeast 280 322 16,800 -1,000 Descending Montreal Center
Thu 06:57:43 PM 46.0000 -74.6833 103° East 260 299 15,800 -1,000 Descending Montreal Center
Thu 06:58:43 PM 45.9667 -74.6000 120° Southeast 250 288 14,800 -950 Descending Montreal Center
Thu 06:59:43 PM 45.9500 -74.5000 103° East 240 276 13,900 -1,000 Descending Montreal Center
Thu 07:00:43 PM 45.9333 -74.4333 110° East 240 276 12,800 -1,050 Descending Montreal Center
Thu 07:01:43 PM 45.9000 -74.3333 116° Southeast 240 276 11,800 -1,000 Descending Montreal Center
Thu 07:02:43 PM 45.8500 -74.2667 137° Southeast 250 288 10,800 -950 Descending Montreal Center
Thu 07:03:43 PM 45.8000 -74.2167 145° Southeast 240 276 9,900 -1,000 Descending Montreal Center
Thu 07:04:43 PM 45.7500 -74.1500 137° Southeast 240 276 8,800 -950 Descending Montreal Center
Thu 07:05:43 PM 45.7000 -74.0667 131° Southeast 240 276 8,000 -850 Descending Montreal Center
Thu 07:06:43 PM 45.6500 -74.0333 155° Southeast 230 265 7,100 -950 Descending Montreal Center
Thu 07:07:43 PM 45.5833 -73.9833 152° Southeast 230 265 6,100 -550 Descending Montreal Center
Thu 07:08:43 PM 45.5333 -73.9333 145° Southeast 230 265 6,000 -250 Descending Montreal Center
Thu 07:09:43 PM 45.4667 -73.8833 152° Southeast 220 253 5,600 -400 Descending Montreal Center
Thu 07:10:43 PM 45.4167 -73.9333 215° Southwest 220 253 5,200 -350 Descending Montreal Center
Thu 07:11:43 PM 45.3833 -74.0167 240° Southwest 210 242 4,900 -400 Descending Montreal Center
Thu 07:12:43 PM 45.3333 -74.0667 215° Southwest 210 242 4,400 -450 Descending Montreal Center
Thu 07:13:43 PM 45.3000 -74.1167 227° Southwest 210 242 4,000 -200 Descending Montreal Center
Thu 07:14:43 PM 45.2500 -74.1333 193° South 190 219 4,000  Level Montreal Center
Thu 07:15:43 PM 45.2500 -74.0667 90° East 180 207 4,000  Level Montreal Center
Thu 07:16:43 PM 45.2667 -74.0000 70° East 170 196 4,000  Level Montreal Center
Thu 07:17:43 PM 45.3000 -73.9500 47° Northeast 170 196 4,000 -450 Level Montreal Center
Thu 07:18:43 PM 45.3333 -73.9000 47° Northeast 170 196 3,100 -900 Descending Montreal Center
Thu 07:19:43 PM 45.3667 -73.8667 35° Northeast 170 196 2,200 -850 Descending Montreal Center
Thu 07:20:43 PM 45.4000 -73.8167 46° Northeast 160 184 1,400 -800 Descending Montreal Center

Login

Don't have an account? Register now (free) for customized features, flight alerts, and more!